OLBO2: North Canadian River

Data processed at Sat Dec 09 2017 23:20


All information presented herein is the property of the government of the United States of America and may be revised or deleted at any time without prior notice.
Dissemination of this information without the expressed written consent of the Public Affairs Office, Tulsa District U.S. Army Corps of Engineers is strictly prohibited.
These data are gathered electronically and, as presented, have not undergone any form of quality control. These data are not guaranteed to be valid or correct.
Go to home page.
Go to station list.

Upstream stations:

Downstream station:
Previous Day
Next Day
Current Day
    
SHEF ID:       OLBO2     North Canadian River blw Lk Over
STATION TYPE:  

               PRECIP     STAGE  RIV-FLOW  WTR-TEMP   DIS-OXY   CONDUCT  BAT-LOAD
                   in        ft       cfs         F      mg/l   umho/cm      volt
              Ccp-Rev   Ccp-Rev   Ccp-Rev   Ccp-Rev   Ccp-Rev   Ccp-Rev   Ccp-Rev
(US/Central)
12/07 00:00      0.00      4.61        32     48.58     10.79      1357     12.41
12/07 01:00      0.00      4.60        32     48.31     10.81      1358     12.33
12/07 02:00      0.00      4.60        32     47.86     10.83      1354     12.41
12/07 03:00      0.00      4.61        32     47.64     10.89      1359     12.25
12/07 04:00      0.00      4.60        32     47.39     10.92      1363     12.33
12/07 05:00      0.00      4.62        33     46.90     11.01      1359     12.25
12/07 06:00      0.00      4.60        32     46.45     11.05      1357     12.17
12/07 07:00      0.00      4.59        31     46.15     11.09      1355     12.17
12/07 08:00      0.00      4.60        32     45.95     11.21      1353     12.17
12/07 09:00      0.00      4.60        32     45.88     11.72      1351     12.17
12/07 10:00      0.00      4.61        32     46.13     12.36      1348     12.57
12/07 11:00      0.00      4.60        32     46.80     13.04      1344     13.68
12/07 12:00      0.00      4.58        30     47.26     13.40      1340     14.16
12/07 13:00      0.00      4.60        32     47.48     13.47      1346     14.00
12/07 14:00      0.00      4.61        32     47.53     13.46      1342     13.92
12/07 15:00      0.00      4.58        30     47.17     13.21      1341     13.68
12/07 16:00      0.00      4.58        30     46.62     12.65      1343     13.68
12/07 17:00      0.00      4.61        32     46.24     12.19      1344     13.37
12/07 18:00      0.00      4.60        32     45.93     11.62      1343     12.65
12/07 19:00      0.00      4.60        32     45.75     11.44      1343     12.57
12/07 20:00      0.00      4.61        32     45.55     11.43      1346     12.57
12/07 21:00      0.00      4.60        32     45.34     11.42      1344     12.49
12/07 22:00      0.00      4.61        32     45.19     11.40      1352     12.49
12/07 23:00      0.00      4.61        32     45.00     11.41      1345     12.41